Pointe-Lebel, Canada
Current Conditions -  °F | °C
As of 1:00 PM on Thursday 29 Jan 2015 (Local Time) from CYBC Reporting Station
Overcast Overcast  
Wind Chill: 19°   Ceiling: 3400
Heat Index: 19°   Visibility: 9mi
Dew Point: 12°   Wind: 2mph
Humidity: 74%   Direction: NA
Pressure: 30.17"   Gusts: NA
Location:  49.15°N, 68.2°W
Report Text: CYBC 291800Z AUTO VRB02KT 9SM OVC034 M07/M11 A3017 RMK SLP217
Loading
Personal Weather Stations






























Interactive Weather Map New forecast layout! Learn more

10-Day Weather Forecast

Advertisements
Track Severe Weather on mobile